createdAt,value
2022-09-26T00:01:34.526Z,10.57
2022-09-26T00:04:05.366Z,10.87
2022-09-26T00:06:33.494Z,10.77
2022-09-26T00:09:01.481Z,10.62
2022-09-26T00:11:31.303Z,10.53
2022-09-26T00:14:01.116Z,10.30
2022-09-26T00:16:29.209Z,10.60
2022-09-26T00:18:58.759Z,10.83
2022-09-26T00:21:29.369Z,10.92
2022-09-26T00:23:58.330Z,10.55
2022-09-26T00:26:26.991Z,10.64
2022-09-26T00:28:55.680Z,10.72
2022-09-26T00:31:25.220Z,10.61
2022-09-26T00:33:53.368Z,10.66
2022-09-26T00:36:26.879Z,10.39
2022-09-26T00:39:06.249Z,10.41
2022-09-26T00:41:34.343Z,10.50
2022-09-26T00:44:02.637Z,10.32
2022-09-26T00:46:32.225Z,10.24
2022-09-26T00:49:06.738Z,10.46
2022-09-26T00:51:36.173Z,10.30
2022-09-26T00:54:05.193Z,9.70
2022-09-26T00:56:36.104Z,9.98
2022-09-26T00:59:06.218Z,9.64
2022-09-26T01:01:35.145Z,9.59
2022-09-26T01:04:03.584Z,9.68
2022-09-26T01:06:32.471Z,9.72
2022-09-26T01:09:01.783Z,9.41
2022-09-26T01:11:31.512Z,9.51
2022-09-26T01:14:00.896Z,9.65
2022-09-26T01:16:28.972Z,9.28
2022-09-26T01:18:57.005Z,9.37
2022-09-26T01:21:46.036Z,9.40
2022-09-26T01:24:27.446Z,9.79
2022-09-26T01:27:03.644Z,9.85
2022-09-26T01:30:02.023Z,9.30
2022-09-26T01:32:51.787Z,9.53
2022-09-26T01:35:27.427Z,9.48
2022-09-26T01:38:01.057Z,9.95
2022-09-26T01:40:32.518Z,9.85
2022-09-26T01:43:06.743Z,9.77
2022-09-26T01:45:40.925Z,9.54
2022-09-26T01:48:16.756Z,9.49
2022-09-26T01:50:51.316Z,9.61
2022-09-26T01:53:21.831Z,9.65
2022-09-26T01:55:55.678Z,9.84
2022-09-26T01:58:26.612Z,9.60
2022-09-26T02:00:58.338Z,9.99
2022-09-26T02:03:29.339Z,9.94
2022-09-26T02:05:59.171Z,10.22
2022-09-26T02:08:29.625Z,9.80
2022-09-26T02:11:02.193Z,10.27
2022-09-26T02:13:32.588Z,9.92
2022-09-26T02:16:03.426Z,9.63
2022-09-26T02:18:35.560Z,9.83
2022-09-26T02:21:08.792Z,9.83
2022-09-26T02:23:36.925Z,10.08
2022-09-26T02:26:05.042Z,9.78
2022-09-26T02:28:33.087Z,9.81
2022-09-26T02:31:03.839Z,10.17
2022-09-26T02:33:33.245Z,9.78
2022-09-26T02:36:02.289Z,10.06
2022-09-26T02:38:33.728Z,9.76
2022-09-26T02:41:29.575Z,9.69
2022-09-26T02:44:03.913Z,9.82
2022-09-26T02:46:39.689Z,9.76
2022-09-26T02:49:16.143Z,9.67
2022-09-26T02:51:59.490Z,9.80
2022-09-26T02:54:40.949Z,9.78
2022-09-26T02:57:14.869Z,9.97
2022-09-26T02:59:50.139Z,9.97
2022-09-26T03:02:21.514Z,9.86
2022-09-26T03:05:12.241Z,9.67
2022-09-26T03:07:43.837Z,9.87
2022-09-26T03:10:13.903Z,9.88
2022-09-26T03:12:45.961Z,9.68
2022-09-26T03:15:14.970Z,9.47
2022-09-26T03:17:44.920Z,9.67
2022-09-26T03:20:17.704Z,9.51
2022-09-26T03:22:48.377Z,9.64
2022-09-26T03:25:18.425Z,9.39
2022-09-26T03:27:54.283Z,9.42
2022-09-26T03:30:24.912Z,9.75
2022-09-26T03:33:13.659Z,9.37
2022-09-26T03:35:43.006Z,9.37
2022-09-26T03:38:14.240Z,9.29
2022-09-26T03:40:48.290Z,9.64
2022-09-26T03:43:49.520Z,9.17
2022-09-26T03:46:18.152Z,9.40
2022-09-26T03:48:46.435Z,9.39
2022-09-26T03:51:16.247Z,9.51
2022-09-26T03:53:45.939Z,9.50
2022-09-26T03:56:17.997Z,8.93
2022-09-26T03:58:46.396Z,9.11
2022-09-26T04:01:18.406Z,9.13
2022-09-26T04:03:50.545Z,9.00
2022-09-26T04:06:22.817Z,8.86
2022-09-26T04:08:52.310Z,8.76
2022-09-26T04:11:21.639Z,8.74
2022-09-26T04:13:52.535Z,8.51
2022-09-26T04:16:23.616Z,8.63
2022-09-26T04:18:57.848Z,8.44
2022-09-26T04:21:29.600Z,8.56
2022-09-26T04:23:59.311Z,8.47
2022-09-26T04:26:28.159Z,8.55
2022-09-26T04:28:57.489Z,8.56
2022-09-26T04:31:39.374Z,8.65
2022-09-26T04:34:13.040Z,8.32
2022-09-26T04:36:43.630Z,8.32
2022-09-26T04:39:11.834Z,8.20
2022-09-26T04:41:39.817Z,8.18
2022-09-26T04:44:07.835Z,8.24
2022-09-26T04:46:35.809Z,8.30
2022-09-26T04:49:04.159Z,8.25
2022-09-26T04:51:32.665Z,8.37
2022-09-26T04:54:02.307Z,8.25
2022-09-26T04:56:34.340Z,8.17
2022-09-26T04:59:02.425Z,8.25
2022-09-26T05:01:42.253Z,8.15
2022-09-26T05:04:17.869Z,8.17
2022-09-26T05:06:45.894Z,8.32
2022-09-26T05:09:26.857Z,8.05
2022-09-26T05:12:07.159Z,8.21
2022-09-26T05:14:36.307Z,8.46
2022-09-26T05:17:05.989Z,8.20
2022-09-26T05:19:34.572Z,8.06
2022-09-26T05:22:21.286Z,8.03
2022-09-26T05:25:08.692Z,8.23
2022-09-26T05:27:38.230Z,8.03
2022-09-26T05:30:07.193Z,8.22
2022-09-26T05:32:35.178Z,8.15
2022-09-26T05:35:06.429Z,8.08
2022-09-26T05:37:39.637Z,7.94
2022-09-26T05:40:27.691Z,8.16
2022-09-26T05:43:00.836Z,8.43
2022-09-26T05:45:31.753Z,8.27
2022-09-26T05:48:02.796Z,8.43
2022-09-26T05:50:30.952Z,8.32
2022-09-26T05:52:59.014Z,8.08
2022-09-26T05:55:29.048Z,8.34
2022-09-26T05:58:18.899Z,8.18
2022-09-26T06:01:25.319Z,8.17
2022-09-26T06:04:02.766Z,8.42
2022-09-26T06:06:31.337Z,8.36
2022-09-26T06:09:10.268Z,8.15
2022-09-26T06:12:11.841Z,8.36
2022-09-26T06:14:46.752Z,8.54
2022-09-26T06:17:15.150Z,8.52
2022-09-26T06:19:44.384Z,8.59
2022-09-26T06:22:12.404Z,8.63
2022-09-26T06:24:40.572Z,8.86
2022-09-26T06:27:13.502Z,8.68
2022-09-26T06:29:44.187Z,8.91
2022-09-26T06:32:12.195Z,9.36
2022-09-26T06:35:02.944Z,9.72
2022-09-26T06:37:48.983Z,9.75
2022-09-26T06:40:17.123Z,9.96
2022-09-26T06:42:48.909Z,10.20
2022-09-26T06:45:26.891Z,10.23
2022-09-26T06:48:09.959Z,10.62
2022-09-26T06:51:00.052Z,10.21
2022-09-26T06:53:30.921Z,10.64
2022-09-26T06:56:00.130Z,10.62
2022-09-26T06:58:29.808Z,10.42
2022-09-26T07:01:02.793Z,10.76
2022-09-26T07:03:45.690Z,10.71
2022-09-26T07:06:33.019Z,10.75
2022-09-26T07:09:12.534Z,10.63
2022-09-26T07:12:16.179Z,10.75
2022-09-26T07:14:50.100Z,10.79
2022-09-26T07:17:29.504Z,10.82
2022-09-26T07:20:10.865Z,10.93
2022-09-26T07:23:05.489Z,11.33
2022-09-26T07:25:34.026Z,11.13
2022-09-26T07:28:04.573Z,11.19
2022-09-26T07:30:39.335Z,11.53
2022-09-26T07:33:13.433Z,11.54
2022-09-26T07:35:50.147Z,11.93
2022-09-26T07:38:18.286Z,11.91
2022-09-26T07:40:47.113Z,11.83
2022-09-26T07:43:20.212Z,11.89
2022-09-26T07:46:10.406Z,12.04
2022-09-26T07:48:57.448Z,12.53
2022-09-26T07:51:44.141Z,12.35
2022-09-26T07:54:17.939Z,12.17
2022-09-26T07:57:06.679Z,12.11
2022-09-26T08:00:01.409Z,12.09
2022-09-26T08:03:09.159Z,12.21
2022-09-26T08:05:39.195Z,12.19
2022-09-26T08:08:14.552Z,12.28
2022-09-26T08:11:04.040Z,12.64
2022-09-26T08:13:51.187Z,12.38
2022-09-26T08:16:41.384Z,12.16
2022-09-26T08:19:17.467Z,12.06
2022-09-26T08:21:46.324Z,12.09
2022-09-26T08:24:14.720Z,12.43
2022-09-26T08:26:55.662Z,12.54
2022-09-26T08:29:27.852Z,12.67
2022-09-26T08:31:58.294Z,12.76
2022-09-26T08:34:27.792Z,12.65
2022-09-26T08:37:18.685Z,13.06
2022-09-26T08:40:16.231Z,12.97
2022-09-26T08:43:07.338Z,13.28
2022-09-26T08:46:11.229Z,13.41
2022-09-26T08:48:55.238Z,13.30
2022-09-26T08:51:30.744Z,13.34
2022-09-26T08:54:04.164Z,13.80
2022-09-26T08:56:36.540Z,13.30
2022-09-26T08:59:06.463Z,13.22
2022-09-26T09:01:39.382Z,13.79
2022-09-26T09:04:32.181Z,13.57
2022-09-26T09:07:06.412Z,14.04
2022-09-26T09:09:34.910Z,13.77
2022-09-26T09:12:34.244Z,13.84
2022-09-26T09:15:32.339Z,14.39
2022-09-26T09:18:29.123Z,14.38
2022-09-26T09:21:27.776Z,14.12
2022-09-26T09:24:19.328Z,14.08
2022-09-26T09:29:49.631Z,14.98
2022-09-26T09:32:52.828Z,14.92
2022-09-26T09:35:38.302Z,15.13
2022-09-26T09:38:24.398Z,15.50
2022-09-26T09:41:32.483Z,15.55
2022-09-26T09:44:02.185Z,15.48
2022-09-26T09:46:35.919Z,15.06
2022-09-26T09:49:15.466Z,15.44
2022-09-26T09:51:49.300Z,15.89
2022-09-26T09:54:23.953Z,16.11
2022-09-26T09:56:59.168Z,16.08
2022-09-26T09:59:47.584Z,15.67
2022-09-26T10:02:20.966Z,15.37
2022-09-26T10:04:56.490Z,15.40
2022-09-26T10:07:27.575Z,15.35
2022-09-26T10:10:20.119Z,15.11
2022-09-26T10:13:31.515Z,15.37
2022-09-26T10:16:33.295Z,14.90
2022-09-26T10:19:06.977Z,14.85
2022-09-26T10:21:40.523Z,14.92
2022-09-26T10:24:22.330Z,15.02
2022-09-26T10:26:51.402Z,15.13
2022-09-26T10:29:41.185Z,15.08
2022-09-26T10:32:09.779Z,15.06
2022-09-26T10:34:40.347Z,14.97
2022-09-26T10:37:23.072Z,14.99
2022-09-26T10:40:14.449Z,14.97
2022-09-26T10:42:43.326Z,15.24
2022-09-26T10:45:17.469Z,15.12
2022-09-26T10:48:12.880Z,14.93
2022-09-26T10:51:00.461Z,15.22
2022-09-26T10:53:45.448Z,15.40
2022-09-26T10:56:16.876Z,15.67
2022-09-26T10:58:47.058Z,15.81
2022-09-26T11:01:22.341Z,15.78
2022-09-26T11:03:50.804Z,15.64
2022-09-26T11:06:26.901Z,15.79
2022-09-26T11:09:03.300Z,15.81
2022-09-26T11:11:54.150Z,16.30
2022-09-26T11:14:28.265Z,16.20
2022-09-26T11:17:03.789Z,15.65
2022-09-26T11:19:36.291Z,16.14
2022-09-26T11:22:08.387Z,15.84
2022-09-26T11:24:45.541Z,16.43
2022-09-26T11:27:20.725Z,16.21
2022-09-26T11:29:55.575Z,17.32
2022-09-26T11:32:28.955Z,17.09
2022-09-26T11:35:01.354Z,16.82
2022-09-26T11:37:40.177Z,16.81
2022-09-26T11:40:17.953Z,17.40
2022-09-26T11:42:54.849Z,16.88
2022-09-26T11:45:27.271Z,17.40
2022-09-26T11:48:38.911Z,17.74
2022-09-26T11:51:36.853Z,18.05
2022-09-26T11:54:16.063Z,17.85
2022-09-26T11:56:50.890Z,17.78
2022-09-26T11:59:28.771Z,17.43
2022-09-26T12:02:04.447Z,17.99
2022-09-26T12:04:45.106Z,17.24
2022-09-26T12:07:17.464Z,17.09
2022-09-26T12:09:56.180Z,17.78
2022-09-26T12:12:29.376Z,18.39
2022-09-26T12:15:08.792Z,17.94
2022-09-26T12:17:41.814Z,18.16
2022-09-26T12:20:20.970Z,18.78
2022-09-26T12:22:56.013Z,17.81
2022-09-26T12:25:31.151Z,16.82
2022-09-26T12:28:10.147Z,16.68
2022-09-26T12:30:43.659Z,16.54
2022-09-26T12:33:23.408Z,16.39
2022-09-26T12:35:54.694Z,16.63
2022-09-26T12:38:35.584Z,16.43
2022-09-26T12:41:14.119Z,16.55
2022-09-26T12:43:56.139Z,16.14
2022-09-26T12:46:39.220Z,16.20
2022-09-26T12:49:28.350Z,16.51
2022-09-26T12:52:02.302Z,15.71
2022-09-26T12:54:40.233Z,15.54
2022-09-26T12:57:17.166Z,15.67
2022-09-26T12:59:52.615Z,16.05
2022-09-26T13:02:32.367Z,15.60
2022-09-26T13:05:10.033Z,15.15
2022-09-26T13:07:47.230Z,15.05
2022-09-26T13:10:27.789Z,14.98
2022-09-26T13:13:04.028Z,14.99
2022-09-26T13:15:35.304Z,15.02
2022-09-26T13:18:06.226Z,15.46
2022-09-26T13:20:38.478Z,15.54
2022-09-26T13:23:11.655Z,15.86
2022-09-26T13:25:49.384Z,16.29
2022-09-26T13:28:21.616Z,15.96
2022-09-26T13:30:51.882Z,15.89
2022-09-26T13:33:22.248Z,16.32
2022-09-26T13:35:52.536Z,16.20
2022-09-26T13:38:39.064Z,16.30
2022-09-26T13:41:15.093Z,16.25
2022-09-26T13:43:58.014Z,16.26
2022-09-26T13:46:30.942Z,16.25
2022-09-26T13:49:03.976Z,15.89
2022-09-26T13:51:40.118Z,15.57
2022-09-26T13:54:17.514Z,15.56
2022-09-26T13:56:49.393Z,15.34
2022-09-26T13:59:26.192Z,15.02
2022-09-26T14:02:13.535Z,14.77
2022-09-26T14:04:41.627Z,14.58
2022-09-26T14:07:33.234Z,14.04
2022-09-26T14:10:10.264Z,14.00
2022-09-26T14:12:53.842Z,13.67
2022-09-26T14:15:24.016Z,13.67
2022-09-26T14:18:08.163Z,14.07
2022-09-26T14:20:53.331Z,14.22
2022-09-26T14:23:35.220Z,14.29
2022-09-26T14:26:07.565Z,14.16
2022-09-26T14:28:38.456Z,14.53
2022-09-26T14:31:19.478Z,14.76
2022-09-26T14:33:47.699Z,14.47
2022-09-26T14:36:19.337Z,14.42
2022-09-26T14:38:48.173Z,14.55
2022-09-26T14:41:19.153Z,14.20
2022-09-26T14:43:52.557Z,14.51
2022-09-26T14:46:24.416Z,14.61
2022-09-26T14:48:58.112Z,14.32
2022-09-26T14:51:28.662Z,14.43
2022-09-26T14:54:00.436Z,14.29
2022-09-26T14:56:37.269Z,14.68
2022-09-26T14:59:24.133Z,14.73
2022-09-26T15:01:54.476Z,14.54
2022-09-26T15:04:24.902Z,14.79
2022-09-26T15:06:55.420Z,14.63
2022-09-26T15:09:25.141Z,14.53
2022-09-26T15:11:58.245Z,14.53
2022-09-26T15:14:32.048Z,14.50
2022-09-26T15:17:02.209Z,14.69
2022-09-26T15:19:34.489Z,14.28
2022-09-26T15:22:04.028Z,14.33
2022-09-26T15:24:33.402Z,14.32
2022-09-26T15:27:08.117Z,14.24
2022-09-26T15:29:36.972Z,14.23
2022-09-26T15:32:06.845Z,14.27
2022-09-26T15:34:36.607Z,14.26
2022-09-26T15:37:10.475Z,14.24
2022-09-26T15:39:41.255Z,14.13
2022-09-26T15:42:37.553Z,14.15
2022-09-26T15:45:17.575Z,14.05
2022-09-26T15:47:47.493Z,14.07
2022-09-26T15:50:17.317Z,14.08
2022-09-26T15:52:47.649Z,13.89
2022-09-26T15:55:18.088Z,13.99
2022-09-26T15:57:49.550Z,14.09
2022-09-26T16:00:18.887Z,13.74
2022-09-26T16:02:48.661Z,13.80
2022-09-26T16:05:17.201Z,13.99
2022-09-26T16:07:48.588Z,13.73
2022-09-26T16:10:25.091Z,13.73
2022-09-26T16:12:53.526Z,13.99
2022-09-26T16:15:22.884Z,13.99
2022-09-26T16:17:53.436Z,13.94
2022-09-26T16:20:26.473Z,13.89
2022-09-26T16:23:00.412Z,13.82
2022-09-26T16:25:36.136Z,13.84
2022-09-26T16:28:32.110Z,13.88
2022-09-26T16:31:10.349Z,13.74
2022-09-26T16:33:40.751Z,13.72
2022-09-26T16:36:16.050Z,13.55
2022-09-26T16:38:44.319Z,13.39
2022-09-26T16:41:36.180Z,13.53
2022-09-26T16:44:26.263Z,13.42
2022-09-26T16:47:02.565Z,13.35
2022-09-26T16:49:34.523Z,13.37
2022-09-26T16:52:20.171Z,13.44
2022-09-26T16:54:48.660Z,13.30
2022-09-26T16:57:19.411Z,13.22
2022-09-26T16:59:47.513Z,13.45
2022-09-26T17:02:15.044Z,13.19
2022-09-26T17:04:44.564Z,13.20
2022-09-26T17:07:13.695Z,13.18
2022-09-26T17:09:42.711Z,13.22
2022-09-26T17:12:15.834Z,13.19
2022-09-26T17:14:45.173Z,13.18
2022-09-26T17:17:16.089Z,13.19
2022-09-26T17:19:47.683Z,13.18
2022-09-26T17:22:16.297Z,13.17
2022-09-26T17:24:44.732Z,13.15
2022-09-26T17:27:14.404Z,13.16
2022-09-26T17:29:44.423Z,13.03
2022-09-26T17:32:15.839Z,13.14
2022-09-26T17:34:51.617Z,13.06
2022-09-26T17:37:21.901Z,12.90
2022-09-26T17:39:49.997Z,12.95
2022-09-26T17:42:18.051Z,12.96
2022-09-26T17:44:48.176Z,13.05
2022-09-26T17:47:17.068Z,12.93
2022-09-26T17:49:48.180Z,13.00
2022-09-26T17:52:24.546Z,12.93
2022-09-26T17:54:57.202Z,13.02
2022-09-26T17:57:27.751Z,12.97
2022-09-26T17:59:55.882Z,12.87
2022-09-26T18:02:25.557Z,12.94
2022-09-26T18:04:55.280Z,12.82
2022-09-26T18:07:24.982Z,12.98
2022-09-26T18:09:53.153Z,12.96
2022-09-26T18:12:23.872Z,12.86
2022-09-26T18:14:52.660Z,12.83
2022-09-26T18:17:21.866Z,12.80
2022-09-26T18:19:50.639Z,12.75
2022-09-26T18:22:19.874Z,12.88
2022-09-26T18:24:50.723Z,12.87
2022-09-26T18:27:18.955Z,12.82
2022-09-26T18:29:48.396Z,13.01
2022-09-26T18:32:21.588Z,13.07
2022-09-26T18:34:49.695Z,13.07
2022-09-26T18:37:18.116Z,12.90
2022-09-26T18:39:49.664Z,12.94
2022-09-26T18:42:24.442Z,13.05
2022-09-26T18:45:00.049Z,13.09
2022-09-26T18:47:28.213Z,13.09
2022-09-26T18:49:56.504Z,13.01
2022-09-26T18:52:25.067Z,13.06
2022-09-26T18:55:13.678Z,13.13
2022-09-26T18:58:00.828Z,13.13
2022-09-26T19:00:29.361Z,13.12
2022-09-26T19:02:58.069Z,13.13
2022-09-26T19:05:26.992Z,13.16
2022-09-26T19:07:55.108Z,13.10
2022-09-26T19:10:23.775Z,13.12
2022-09-26T19:12:53.329Z,13.15
2022-09-26T19:15:21.438Z,13.01
2022-09-26T19:17:50.582Z,13.14
2022-09-26T19:20:20.723Z,13.13
2022-09-26T19:22:53.811Z,13.12
2022-09-26T19:25:22.038Z,13.12
2022-09-26T19:27:52.827Z,13.12
2022-09-26T19:30:22.716Z,13.16
2022-09-26T19:32:51.963Z,13.06
2022-09-26T19:35:22.596Z,13.08
2022-09-26T19:37:50.788Z,12.94
2022-09-26T19:40:20.004Z,13.10
2022-09-26T19:42:48.186Z,12.96
2022-09-26T19:45:17.058Z,12.92
2022-09-26T19:47:47.777Z,12.85
2022-09-26T19:50:18.985Z,12.85
2022-09-26T19:52:47.596Z,12.90
2022-09-26T19:55:16.155Z,12.90
2022-09-26T19:57:44.853Z,13.03
2022-09-26T20:00:13.750Z,12.83
2022-09-26T20:02:42.347Z,12.95
2022-09-26T20:05:16.505Z,12.87
2022-09-26T20:07:44.554Z,12.89
2022-09-26T20:10:16.973Z,12.81
2022-09-26T20:12:45.366Z,12.83
2022-09-26T20:15:14.089Z,12.91
2022-09-26T20:17:44.155Z,12.90
2022-09-26T20:20:16.063Z,12.98
2022-09-26T20:22:46.177Z,12.99
2022-09-26T20:25:15.733Z,12.90
2022-09-26T20:27:44.236Z,12.99
2022-09-26T20:30:36.844Z,13.08
2022-09-26T20:33:06.092Z,12.73
2022-09-26T20:35:36.706Z,12.85
2022-09-26T20:38:07.801Z,12.55
2022-09-26T20:40:36.937Z,12.64
2022-09-26T20:43:37.679Z,12.81
2022-09-26T20:46:09.657Z,12.46
2022-09-26T20:48:38.125Z,12.79
2022-09-26T20:51:07.708Z,12.66
2022-09-26T20:53:37.164Z,12.56
2022-09-26T20:56:07.027Z,12.71
2022-09-26T20:58:35.094Z,12.66
2022-09-26T21:01:03.286Z,12.78
2022-09-26T21:03:31.598Z,12.47
2022-09-26T21:05:59.702Z,12.57
2022-09-26T21:08:28.829Z,12.34
2022-09-26T21:10:59.546Z,12.42
2022-09-26T21:13:27.655Z,12.40
2022-09-26T21:15:57.793Z,12.15
2022-09-26T21:18:26.727Z,12.24
2022-09-26T21:20:55.053Z,12.18
2022-09-26T21:23:42.339Z,12.02
2022-09-26T21:26:16.937Z,12.04
2022-09-26T21:28:45.178Z,11.98
2022-09-26T21:31:26.940Z,12.03
2022-09-26T21:33:55.290Z,12.13
2022-09-26T21:36:24.888Z,11.95
2022-09-26T21:38:54.124Z,12.19
2022-09-26T21:41:25.765Z,11.90
2022-09-26T21:43:55.579Z,12.10
2022-09-26T21:46:26.953Z,12.00
2022-09-26T21:48:55.476Z,11.88
2022-09-26T21:51:25.694Z,11.89
2022-09-26T21:53:56.221Z,11.87
2022-09-26T21:56:27.111Z,11.74
2022-09-26T21:58:57.327Z,11.58
2022-09-26T22:02:41.344Z,11.53
2022-09-26T22:05:13.309Z,11.53
2022-09-26T22:07:41.525Z,11.70
2022-09-26T22:10:12.087Z,11.36
2022-09-26T22:12:40.396Z,11.46
2022-09-26T22:15:09.180Z,11.47
2022-09-26T22:17:37.236Z,11.29
2022-09-26T22:20:07.081Z,11.22
2022-09-26T22:22:35.258Z,11.22
2022-09-26T22:25:04.295Z,11.30
2022-09-26T22:27:32.539Z,11.09
2022-09-26T22:30:00.573Z,10.76
2022-09-26T22:32:28.644Z,10.98
2022-09-26T22:34:56.707Z,10.94
2022-09-26T22:37:26.236Z,10.85
2022-09-26T22:39:54.743Z,10.78
2022-09-26T22:42:23.212Z,10.83
2022-09-26T22:44:53.455Z,10.97
2022-09-26T22:47:21.573Z,10.94
2022-09-26T22:49:49.596Z,10.97
2022-09-26T22:52:17.686Z,10.88
2022-09-26T22:54:48.028Z,10.51
2022-09-26T22:57:16.608Z,10.71
2022-09-26T22:59:47.278Z,10.70
2022-09-26T23:02:15.357Z,10.61
2022-09-26T23:04:49.039Z,10.63
2022-09-26T23:07:18.354Z,10.61
2022-09-26T23:09:47.791Z,10.61
2022-09-26T23:12:18.942Z,10.58
2022-09-26T23:14:47.040Z,10.54
2022-09-26T23:17:15.192Z,10.50
2022-09-26T23:19:43.851Z,10.68
2022-09-26T23:22:11.907Z,10.47
2022-09-26T23:24:40.038Z,10.58
2022-09-26T23:27:09.453Z,10.47
2022-09-26T23:29:37.901Z,10.42
2022-09-26T23:32:05.970Z,10.62
2022-09-26T23:34:34.402Z,10.44
2022-09-26T23:37:02.429Z,10.62
2022-09-26T23:39:30.492Z,10.52
2022-09-26T23:41:58.767Z,10.44
2022-09-26T23:44:32.211Z,10.53
2022-09-26T23:47:02.538Z,10.55
2022-09-26T23:49:30.662Z,10.78
2022-09-26T23:51:58.779Z,10.48
2022-09-26T23:54:27.218Z,10.69
2022-09-26T23:56:55.264Z,10.77
2022-09-26T23:59:23.488Z,10.59
